Terminal Aerodrome Forecast
Issued by NWS Wakefield, VA

Home | Current Version | Previous Version | Text Only | Print | Product List | Glossary On
Versions: 1 2 3 4 5 6 7 8 9 10 11 12 13 14 15 16 17 18 19 20 21 22 23 24 25
000
FTUS41 KAKQ 180521
TAFSBY
TAF
KSBY 180521Z 1806/1906 25009KT P6SM BKN040
     FM180700 25009KT P6SM BKN020
     FM180900 26008KT 4SM BR BKN015
      TEMPO 1809/1813 BKN007
     FM181300 30009KT P6SM BKN020
     FM181500 31012G19KT P6SM BKN040
     FM190300 32009KT P6SM SCT040=

USA.gov is the U.S. government's official web portal to all federal, state and local government web resources and services.